Terminal Aerodrome Forecast
Issued by NWS Wilmington, OH

Current Version | Previous Version | Text Only | Print | Product List | Glossary Off
Versions: 1 2 3 4 5 6 7 8 9 10 11 12 13 14 15 16 17 18 19 20 21 22 23 24 25 26 27

000
FTUS41 KILN 192300
TAFCMH
TAF
KCMH 192334Z 2000/2024 23008KT P6SM VCTS BKN040CB
      TEMPO 2001/2005 3SM -TSRA BR OVC035CB
     FM200600 19004KT P6SM SCT040
     FM201400 23006KT P6SM SCT035
     FM201800 26008KT P6SM SCT040=

USA.gov is the U.S. government's official web portal to all federal, state and local government web resources and services.